Time;durP1;ratioP1;P1;durP2;ratioP2;P2;SDS_P1;SDS_P2;PMS_P1;PMS_P2;Temp;Humidity;BMP_temperature;BMP_pressure;BME280_temperature;BME280_humidity;BME280_pressure;Samples;Min_cycle;Max_cycle;Signal;HPM_P1;HPM_P2
2023/01/06 00:00:32;;;;;;;4.15;1.90;;;18.50;70.50;;;;;;4429995;32;20703;-67
2023/01/06 00:03:12;;;;;;;5.75;2.03;;;18.50;70.50;;;;;;4430424;32;20078;-67
2023/01/06 00:05:37;;;;;;;3.83;1.70;;;18.50;70.50;;;;;;4429960;32;20161;-67
2023/01/06 00:08:03;;;;;;;3.85;1.60;;;18.50;70.50;;;;;;4430346;32;20070;-66
2023/01/06 00:10:33;;;;;;;3.67;1.70;;;18.50;70.50;;;;;;4429059;32;20110;-67
2023/01/06 00:12:59;;;;;;;3.28;1.77;;;18.50;70.50;;;;;;4429893;32;20073;-67
2023/01/06 00:15:25;;;;;;;3.75;2.03;;;18.50;70.60;;;;;;4430090;32;20084;-67
2023/01/06 00:17:50;;;;;;;4.25;1.90;;;18.40;70.50;;;;;;4429790;32;21450;-67
2023/01/06 00:20:16;;;;;;;4.40;1.83;;;18.50;70.50;;;;;;4429965;32;20071;-67
2023/01/06 00:22:42;;;;;;;4.15;1.92;;;18.40;70.50;;;;;;4429696;32;20412;-67
2023/01/06 00:25:09;;;;;;;3.55;1.80;;;18.40;70.50;;;;;;4429736;32;20066;-67
2023/01/06 00:27:35;;;;;;;3.80;1.90;;;18.40;70.50;;;;;;4437585;32;20090;-67
2023/01/06 00:30:01;;;;;;;3.70;2.00;;;18.40;70.60;;;;;;4430092;32;20074;-67
2023/01/06 00:32:27;;;;;;;2.97;1.48;;;18.40;70.60;;;;;;4429748;32;20086;-67
2023/01/06 00:34:53;;;;;;;3.30;1.70;;;18.40;70.60;;;;;;4429661;32;20153;-67
2023/01/06 00:37:19;;;;;;;2.90;1.50;;;18.40;70.50;;;;;;4429516;32;20403;-67
2023/01/06 00:39:45;;;;;;;2.88;1.73;;;18.40;70.60;;;;;;4429741;32;20063;-67
2023/01/06 00:42:11;;;;;;;3.53;1.50;;;18.40;70.50;;;;;;4429449;32;20497;-67
2023/01/06 00:44:39;;;;;;;3.15;1.38;;;18.40;70.50;;;;;;4429754;32;20101;-67
2023/01/06 00:47:07;;;;;;;3.40;1.88;;;18.40;70.60;;;;;;4429327;32;20075;-67
2023/01/06 00:49:34;;;;;;;4.50;1.90;;;18.40;70.50;;;;;;4429551;32;20062;-66
2023/01/06 00:51:59;;;;;;;2.40;1.35;;;18.30;70.50;;;;;;4429607;32;20099;-67
2023/01/06 00:54:25;;;;;;;3.30;1.70;;;18.30;70.50;;;;;;4429542;32;20070;-67
2023/01/06 00:56:53;;;;;;;3.80;1.70;;;18.30;70.50;;;;;;4428779;32;20070;-67
2023/01/06 00:59:21;;;;;;;3.38;1.50;;;18.30;70.50;;;;;;4429198;32;20110;-67
2023/01/06 01:01:49;;;;;;;4.05;1.42;;;18.30;70.50;;;;;;4429371;32;20475;-67
2023/01/06 01:04:16;;;;;;;4.05;1.60;;;18.30;70.50;;;;;;4429231;32;20499;-67
2023/01/06 01:06:44;;;;;;;2.72;1.40;;;18.30;70.50;;;;;;4428929;32;20118;-67
2023/01/06 01:09:16;;;;;;;5.05;1.83;;;18.30;70.50;;;;;;4426153;32;20148;-67
2023/01/06 01:14:27;;;;;;;4.45;1.70;;;18.30;70.50;;;;;;4429021;32;20188;-67
2023/01/06 01:16:53;;;;;;;3.97;1.73;;;18.30;70.40;;;;;;4429309;32;20078;-67
2023/01/06 01:19:19;;;;;;;6.25;1.67;;;18.20;70.40;;;;;;4429066;32;20070;-67
2023/01/06 01:21:45;;;;;;;4.10;1.70;;;18.20;70.40;;;;;;4429297;32;20121;-67
2023/01/06 01:24:17;;;;;;;4.70;1.50;;;18.20;70.40;;;;;;4429331;32;20082;-67
2023/01/06 01:26:43;;;;;;;4.80;2.00;;;18.20;70.50;;;;;;4428630;32;20610;-67
2023/01/06 01:29:14;;;;;;;3.25;1.25;;;18.20;70.40;;;;;;4429143;32;20101;-67
2023/01/06 01:31:40;;;;;;;4.47;1.80;;;18.20;70.40;;;;;;4428946;32;20102;-67
2023/01/06 01:34:07;;;;;;;3.00;1.50;;;18.20;70.30;;;;;;4429296;32;20097;-67
2023/01/06 01:36:33;;;;;;;3.75;1.42;;;18.20;70.40;;;;;;4429142;32;20508;-67
2023/01/06 01:38:59;;;;;;;3.65;1.55;;;18.20;70.40;;;;;;4428866;32;20074;-67
2023/01/06 01:41:26;;;;;;;4.22;1.67;;;18.20;70.50;;;;;;4429151;32;20518;-67
2023/01/06 01:43:57;;;;;;;3.17;1.48;;;18.20;70.50;;;;;;4428769;32;20166;-67
2023/01/06 01:46:32;;;;;;;4.30;1.67;;;18.20;70.50;;;;;;4429096;32;20074;-67
2023/01/06 01:49:16;;;;;;;2.63;1.30;;;18.20;70.50;;;;;;4429228;32;20133;-67
2023/01/06 01:51:44;;;;;;;2.92;1.33;;;18.20;70.50;;;;;;4429006;32;20149;-67
2023/01/06 01:54:14;;;;;;;4.00;1.55;;;18.20;70.50;;;;;;4428831;32;20177;-67
2023/01/06 01:56:46;;;;;;;3.67;1.65;;;18.20;70.50;;;;;;4428419;32;20105;-67
2023/01/06 01:59:16;;;;;;;2.60;1.27;;;18.20;70.50;;;;;;4428848;32;20081;-67
2023/01/06 02:01:43;;;;;;;3.08;1.60;;;18.20;70.50;;;;;;4429067;32;20224;-67
2023/01/06 02:04:09;;;;;;;2.50;1.20;;;18.20;70.50;;;;;;4428890;32;20078;-67
2023/01/06 02:06:35;;;;;;;4.40;1.58;;;18.20;70.50;;;;;;4428994;32;20078;-67
2023/01/06 02:09:28;;;;;;;4.03;1.40;;;18.20;70.50;;;;;;4428779;32;20070;-68
2023/01/06 02:11:56;;;;;;;5.78;1.40;;;18.10;70.40;;;;;;4429110;32;20074;-67
2023/01/06 02:14:24;;;;;;;2.42;1.20;;;18.20;70.50;;;;;;4428502;32;20074;-67
2023/01/06 02:17:28;;;;;;;3.50;1.67;;;18.10;70.40;;;;;;4428859;32;20102;-67
2023/01/06 02:20:15;;;;;;;3.67;1.38;;;18.10;70.40;;;;;;4389523;32;20097;-67
2023/01/06 02:23:19;;;;;;;3.10;1.20;;;18.10;70.40;;;;;;4429587;32;20436;-67
2023/01/06 02:26:04;;;;;;;3.28;1.52;;;18.10;70.50;;;;;;4431167;32;20082;-67
2023/01/06 02:28:58;;;;;;;2.97;1.67;;;18.10;70.50;;;;;;4431681;32;20118;-67
2023/01/06 02:31:36;;;;;;;3.17;1.48;;;18.10;70.40;;;;;;4431612;32;20067;-67
2023/01/06 02:34:28;;;;;;;3.63;1.13;;;18.10;70.50;;;;;;4431519;32;20078;-67
2023/01/06 02:36:57;;;;;;;2.63;1.17;;;18.10;70.40;;;;;;4431336;32;20085;-67
2023/01/06 02:39:34;;;;;;;3.15;1.40;;;18.00;70.40;;;;;;4431323;32;20393;-67
2023/01/06 02:42:03;;;;;;;3.05;1.27;;;18.00;70.40;;;;;;4431203;32;20153;-67
2023/01/06 02:44:40;;;;;;;3.38;1.23;;;18.10;70.50;;;;;;4431354;32;20105;-67
2023/01/06 02:47:17;;;;;;;2.58;1.30;;;18.00;70.50;;;;;;4431194;32;20086;-67
2023/01/06 02:50:11;;;;;;;3.20;1.35;;;18.10;70.40;;;;;;4431462;32;20520;-67
2023/01/06 02:52:45;;;;;;;2.50;1.60;;;18.00;70.40;;;;;;4430909;32;20140;-67
2023/01/06 02:55:23;;;;;;;2.35;1.23;;;18.00;70.40;;;;;;4430773;32;20201;-67
2023/01/06 02:57:54;;;;;;;3.00;1.02;;;18.00;70.40;;;;;;4430891;32;20101;-67
2023/01/06 03:00:27;;;;;;;2.60;1.38;;;18.00;70.40;;;;;;4430932;32;20181;-68
2023/01/06 03:03:03;;;;;;;2.38;1.10;;;18.00;70.50;;;;;;4431013;32;20086;-67
2023/01/06 03:05:32;;;;;;;2.97;1.30;;;18.00;70.40;;;;;;4433978;32;20140;-67
2023/01/06 03:08:02;;;;;;;3.58;1.27;;;18.00;70.40;;;;;;4430985;32;20081;-67
2023/01/06 03:10:29;;;;;;;3.75;1.38;;;18.00;70.40;;;;;;4430927;32;20079;-67
2023/01/06 03:13:11;;;;;;;4.32;1.20;;;18.00;70.50;;;;;;4430735;32;20216;-67
2023/01/06 03:15:38;;;;;;;3.00;1.35;;;18.00;70.40;;;;;;4431213;32;20078;-67
2023/01/06 03:18:04;;;;;;;4.18;1.35;;;18.00;70.40;;;;;;4430587;32;20079;-67
2023/01/06 03:20:30;;;;;;;2.17;1.25;;;18.00;70.40;;;;;;4430967;32;20324;-67
2023/01/06 03:22:56;;;;;;;2.53;1.20;;;18.00;70.40;;;;;;4430607;32;20063;-67
2023/01/06 03:25:22;;;;;;;1.80;0.90;;;18.00;70.40;;;;;;4430582;32;20078;-67
2023/01/06 03:27:54;;;;;;;2.50;1.20;;;18.00;70.40;;;;;;4418212;32;20551;-67
2023/01/06 03:30:20;;;;;;;1.85;1.10;;;18.00;70.30;;;;;;4417001;32;20122;-67
2023/01/06 03:33:21;;;;;;;2.60;1.27;;;17.90;70.30;;;;;;4416482;32;20082;-67
2023/01/06 03:36:11;;;;;;;3.00;1.13;;;17.90;70.10;;;;;;4413562;32;20172;-67
2023/01/06 03:39:13;;;;;;;3.47;1.13;;;17.90;70.20;;;;;;4419621;32;20093;-67
2023/01/06 03:44:46;;;;;;;2.47;1.15;;;17.90;70.10;;;;;;4416373;32;20086;-67
2023/01/06 03:47:35;;;;;;;2.55;0.95;;;17.90;70.10;;;;;;4417505;32;20101;-67
2023/01/06 03:50:12;;;;;;;2.85;1.10;;;17.90;70.10;;;;;;4418129;32;20089;-67
2023/01/06 03:52:50;;;;;;;1.83;1.05;;;17.90;70.10;;;;;;4415300;32;20173;-69
2023/01/06 03:55:21;;;;;;;1.25;0.80;;;17.90;70.10;;;;;;4414389;32;20067;-67
2023/01/06 03:57:51;;;;;;;3.13;1.08;;;17.90;70.10;;;;;;4413703;32;20530;-67
2023/01/06 04:00:22;;;;;;;2.25;1.10;;;17.90;70.10;;;;;;4416846;32;20087;-68
2023/01/06 04:02:48;;;;;;;3.30;1.00;;;17.90;70.10;;;;;;4415639;32;20105;-67
2023/01/06 04:05:17;;;;;;;2.08;0.90;;;17.90;70.10;;;;;;4415200;32;20074;-68
2023/01/06 04:07:45;;;;;;;1.73;0.90;;;17.90;70.10;;;;;;4414691;32;20066;-67
2023/01/06 04:10:13;;;;;;;3.17;1.27;;;17.90;70.10;;;;;;4414359;32;20108;-67
2023/01/06 04:12:40;;;;;;;1.50;0.80;;;17.90;70.10;;;;;;4414419;32;20096;-67
2023/01/06 04:15:09;;;;;;;3.83;1.10;;;17.90;70.00;;;;;;4413652;32;20142;-67
2023/01/06 04:17:36;;;;;;;2.60;0.85;;;17.90;70.00;;;;;;4428060;32;20531;-67
2023/01/06 04:20:03;;;;;;;1.20;0.80;;;17.90;70.00;;;;;;4429856;32;20078;-67
2023/01/06 04:22:29;;;;;;;2.20;0.85;;;17.90;70.00;;;;;;4429756;32;20081;-67
2023/01/06 04:24:55;;;;;;;2.50;0.95;;;17.80;69.90;;;;;;4429547;32;20219;-67
2023/01/06 04:27:21;;;;;;;1.90;0.93;;;17.80;69.90;;;;;;4424181;32;20122;-69
2023/01/06 04:29:47;;;;;;;1.80;0.88;;;17.80;69.90;;;;;;4416184;32;20217;-68
2023/01/06 04:32:13;;;;;;;2.83;1.10;;;17.80;69.90;;;;;;4413542;32;20063;-67
2023/01/06 04:34:39;;;;;;;2.10;0.70;;;17.90;70.00;;;;;;4415304;32;20079;-67
2023/01/06 04:37:05;;;;;;;1.73;0.80;;;17.80;69.90;;;;;;4416403;32;20157;-67
2023/01/06 04:39:31;;;;;;;1.50;0.75;;;17.80;69.90;;;;;;4414497;32;20185;-67
2023/01/06 04:41:56;;;;;;;2.38;1.25;;;17.80;69.90;;;;;;4414603;32;20095;-67
2023/01/06 04:44:22;;;;;;;2.15;0.90;;;17.80;70.00;;;;;;4413856;32;20082;-67
2023/01/06 04:46:48;;;;;;;2.85;0.80;;;17.80;69.90;;;;;;4415522;32;20071;-67
2023/01/06 04:49:15;;;;;;;2.08;0.80;;;17.80;69.90;;;;;;4429445;32;20097;-67
2023/01/06 04:51:41;;;;;;;2.97;1.20;;;17.80;69.90;;;;;;4429283;32;20126;-67
2023/01/06 04:54:07;;;;;;;1.00;0.65;;;17.80;69.90;;;;;;4429482;32;20075;-67
2023/01/06 04:56:33;;;;;;;1.85;0.93;;;17.80;69.90;;;;;;4413319;32;20082;-67
2023/01/06 04:59:05;;;;;;;1.98;0.80;;;17.80;69.80;;;;;;4429211;32;20405;-67
2023/01/06 05:01:31;;;;;;;1.73;0.70;;;17.80;69.90;;;;;;4429332;32;20522;-67
2023/01/06 05:03:57;;;;;;;2.40;1.02;;;17.80;69.90;;;;;;4429028;32;20105;-69
2023/01/06 05:06:24;;;;;;;2.05;0.73;;;17.80;69.90;;;;;;4429444;32;20089;-67
2023/01/06 05:08:50;;;;;;;2.20;0.80;;;17.80;69.80;;;;;;4429181;32;20212;-67
2023/01/06 05:11:21;;;;;;;1.90;0.77;;;17.80;69.80;;;;;;4429406;32;20163;-67
2023/01/06 05:13:48;;;;;;;1.98;0.90;;;17.80;69.80;;;;;;4429050;32;20086;-67
2023/01/06 05:16:16;;;;;;;2.92;0.88;;;17.70;69.80;;;;;;4429104;32;20436;-67
2023/01/06 05:18:42;;;;;;;2.13;0.70;;;17.80;69.80;;;;;;4429054;32;20109;-67
2023/01/06 05:21:09;;;;;;;2.97;0.90;;;17.70;69.70;;;;;;4429105;32;20168;-67
2023/01/06 05:23:36;;;;;;;2.05;0.93;;;17.70;69.70;;;;;;4429275;32;20528;-67
2023/01/06 05:26:04;;;;;;;2.92;1.00;;;17.70;69.70;;;;;;4428685;32;20408;-67
2023/01/06 05:28:30;;;;;;;1.20;0.73;;;17.80;69.70;;;;;;4429181;32;20201;-67
2023/01/06 05:31:04;;;;;;;1.80;0.82;;;17.80;69.80;;;;;;4429067;32;20098;-67
2023/01/06 05:33:33;;;;;;;1.88;0.70;;;17.70;69.70;;;;;;4429154;32;20225;-67
2023/01/06 05:36:00;;;;;;;1.73;0.73;;;17.70;69.70;;;;;;4429006;32;20374;-67
2023/01/06 05:38:26;;;;;;;2.20;0.88;;;17.70;69.70;;;;;;4429006;32;20078;-67
2023/01/06 05:40:53;;;;;;;1.88;0.88;;;17.70;69.70;;;;;;4429433;32;20083;-67
2023/01/06 05:43:20;;;;;;;1.85;0.68;;;17.70;69.70;;;;;;4428230;32;20610;-67
2023/01/06 05:45:45;;;;;;;1.20;0.57;;;17.70;69.70;;;;;;4413298;32;20091;-67
2023/01/06 05:48:12;;;;;;;2.05;0.80;;;17.70;69.70;;;;;;4415146;32;20078;-67
2023/01/06 05:50:38;;;;;;;1.80;0.85;;;17.70;69.70;;;;;;4414897;32;20492;-67
2023/01/06 05:53:04;;;;;;;2.42;1.00;;;17.70;69.60;;;;;;4424415;32;20204;-67
2023/01/06 05:55:30;;;;;;;1.40;0.70;;;17.70;69.60;;;;;;4423772;32;20126;-67
2023/01/06 05:57:57;;;;;;;1.88;0.73;;;17.70;69.60;;;;;;4419464;32;20524;-67
2023/01/06 06:00:27;;;;;;;2.08;0.95;;;17.60;69.50;;;;;;4419206;32;20071;-67
2023/01/06 06:02:54;;;;;;;2.47;0.82;;;17.60;69.50;;;;;;4419510;32;20093;-67
2023/01/06 06:05:21;;;;;;;1.60;0.80;;;17.60;69.50;;;;;;4419855;32;20209;-67
2023/01/06 06:07:53;;;;;;;1.42;0.68;;;17.70;69.60;;;;;;4416647;32;20071;-67
2023/01/06 06:10:19;;;;;;;1.20;0.65;;;17.70;69.60;;;;;;4416418;32;20067;-66
2023/01/06 06:12:45;;;;;;;1.70;0.85;;;17.60;69.50;;;;;;4418097;32;20079;-66
2023/01/06 06:15:12;;;;;;;1.35;0.50;;;17.70;69.60;;;;;;4417846;32;20401;-66
2023/01/06 06:17:38;;;;;;;1.40;0.60;;;17.60;69.50;;;;;;4418791;32;20078;-67
2023/01/06 06:20:04;;;;;;;1.67;0.70;;;17.60;69.50;;;;;;4416943;32;20063;-67
2023/01/06 06:22:30;;;;;;;1.35;0.55;;;17.60;70.00;;;;;;4417652;32;20217;-67
2023/01/06 06:24:56;;;;;;;0.88;0.60;;;17.60;69.50;;;;;;4422311;32;20091;-67
2023/01/06 06:27:22;;;;;;;1.30;0.65;;;17.60;69.50;;;;;;4431168;32;20070;-67
2023/01/06 06:29:48;;;;;;;1.65;0.60;;;17.60;69.50;;;;;;4431341;32;20586;-67
2023/01/06 06:32:16;;;;;;;2.55;0.60;;;17.60;69.50;;;;;;4431523;32;20649;-67
2023/01/06 06:34:41;;;;;;;2.72;0.90;;;17.60;69.50;;;;;;4431325;32;20073;-67
2023/01/06 06:37:07;;;;;;;1.00;0.52;;;17.60;69.50;;;;;;4431560;32;20077;-67
2023/01/06 06:39:34;;;;;;;1.42;0.50;;;17.60;69.50;;;;;;4431404;32;20075;-66
2023/01/06 06:42:00;;;;;;;1.38;0.60;;;17.60;69.50;;;;;;4431125;32;20081;-67
2023/01/06 06:44:26;;;;;;;1.70;1.05;;;17.60;69.50;;;;;;4431246;32;20408;-67
2023/01/06 06:46:51;;;;;;;0.95;0.40;;;17.60;69.50;;;;;;4431095;32;20078;-66
2023/01/06 06:49:17;;;;;;;0.75;0.50;;;17.60;69.50;;;;;;4431434;32;20117;-67
2023/01/06 06:51:46;;;;;;;1.13;0.60;;;17.60;69.50;;;;;;4431215;32;20101;-67
2023/01/06 06:54:12;;;;;;;1.50;0.70;;;17.60;69.50;;;;;;4431378;32;20428;-66
2023/01/06 06:56:39;;;;;;;1.35;0.60;;;17.60;69.50;;;;;;4430623;32;20214;-67
2023/01/06 06:59:06;;;;;;;1.00;0.50;;;17.60;69.50;;;;;;4430825;32;20145;-66
2023/01/06 07:01:38;;;;;;;0.80;0.55;;;17.50;69.50;;;;;;4424713;32;20527;-66
2023/01/06 07:04:04;;;;;;;0.50;0.30;;;17.50;69.50;;;;;;4428972;32;20070;-69
2023/01/06 07:06:30;;;;;;;1.27;0.52;;;17.50;69.50;;;;;;4431332;32;20071;-66
2023/01/06 07:09:02;;;;;;;1.58;0.50;;;17.50;69.50;;;;;;4430927;32;20074;-67
2023/01/06 07:11:28;;;;;;;1.13;0.57;;;17.50;69.50;;;;;;4430818;32;20059;-66
2023/01/06 07:13:54;;;;;;;1.00;0.60;;;17.50;69.50;;;;;;4430733;32;20595;-68
2023/01/06 07:16:22;;;;;;;1.05;0.52;;;17.50;69.50;;;;;;4422052;32;20070;-67
2023/01/06 07:18:47;;;;;;;0.90;0.50;;;17.50;69.50;;;;;;4430830;32;20089;-66
2023/01/06 07:21:14;;;;;;;1.25;0.70;;;17.50;69.50;;;;;;4430422;32;20078;-66
2023/01/06 07:23:44;;;;;;;1.05;0.60;;;17.50;69.60;;;;;;4420448;32;20086;-67
2023/01/06 07:26:10;;;;;;;0.85;0.45;;;17.50;69.60;;;;;;4430214;32;20105;-69
2023/01/06 07:28:36;;;;;;;2.20;0.70;;;17.50;69.60;;;;;;4423226;32;20078;-67
2023/01/06 07:31:02;;;;;;;0.73;0.50;;;17.50;69.60;;;;;;4430642;32;20487;-67
2023/01/06 07:33:28;;;;;;;2.13;0.50;;;17.50;69.60;;;;;;4430461;32;20610;-66
2023/01/06 07:35:56;;;;;;;0.95;0.57;;;17.50;69.50;;;;;;4430445;32;20083;-67
2023/01/06 07:38:23;;;;;;;1.48;0.60;;;17.50;69.60;;;;;;4430450;32;20547;-66
2023/01/06 07:40:49;;;;;;;1.15;0.52;;;17.40;69.50;;;;;;4416751;32;20471;-66
2023/01/06 07:43:18;;;;;;;0.82;0.50;;;17.50;69.50;;;;;;4430365;32;20074;-66
2023/01/06 07:45:47;;;;;;;0.80;0.40;;;17.50;69.50;;;;;;4430486;32;20179;-67
2023/01/06 07:48:15;;;;;;;1.08;0.47;;;17.50;69.50;;;;;;4430483;32;20508;-66
2023/01/06 07:50:41;;;;;;;1.83;0.70;;;17.40;69.40;;;;;;4430660;32;20176;-67
2023/01/06 07:53:08;;;;;;;1.48;0.55;;;17.40;69.40;;;;;;4416662;32;20078;-66
2023/01/06 07:55:34;;;;;;;2.38;0.50;;;17.40;69.50;;;;;;4429813;32;20066;-67
2023/01/06 07:58:03;;;;;;;1.45;0.57;;;17.40;69.40;;;;;;4430217;32;20066;-67
2023/01/06 08:00:29;;;;;;;1.58;0.50;;;17.40;69.40;;;;;;4430156;32;20154;-67
2023/01/06 08:02:55;;;;;;;1.60;0.50;;;17.40;69.50;;;;;;4430367;32;20077;-68
2023/01/06 08:05:21;;;;;;;7.00;0.80;;;17.40;69.50;;;;;;4429950;32;20125;-67
2023/01/06 08:07:49;;;;;;;3.15;0.50;;;17.50;69.60;;;;;;4435648;32;20167;-68
2023/01/06 08:10:15;;;;;;;1.38;0.57;;;17.50;69.70;;;;;;4435321;32;20408;-67
2023/01/06 08:12:41;;;;;;;2.05;0.50;;;17.50;69.70;;;;;;4429899;32;20240;-67
2023/01/06 08:15:07;;;;;;;1.33;0.47;;;17.60;69.60;;;;;;4416220;32;20397;-68
2023/01/06 08:17:36;;;;;;;3.33;0.50;;;17.70;69.50;;;;;;4429646;32;20152;-67
2023/01/06 08:20:02;;;;;;;1.88;0.43;;;17.80;69.20;;;;;;4430150;32;20200;-67
2023/01/06 08:22:28;;;;;;;1.58;0.57;;;17.90;68.90;;;;;;4430882;32;20074;-67
2023/01/06 08:24:54;;;;;;;3.22;0.55;;;18.10;68.60;;;;;;4429936;32;20081;-68
2023/01/06 08:27:26;;;;;;;2.28;0.45;;;18.20;68.10;;;;;;4416122;32;20090;-68
2023/01/06 08:29:54;;;;;;;1.45;0.68;;;18.40;67.90;;;;;;4429843;32;20236;-67
2023/01/06 08:32:21;;;;;;;2.15;0.60;;;18.50;67.40;;;;;;4429952;32;20164;-67
2023/01/06 08:34:47;;;;;;;1.75;0.50;;;18.70;67.00;;;;;;4429515;32;20475;-68
2023/01/06 08:37:13;;;;;;;1.70;0.57;;;18.80;66.70;;;;;;4429707;32;20165;-68
2023/01/06 08:39:39;;;;;;;1.10;0.47;;;18.90;66.20;;;;;;4429776;32;20483;-68
2023/01/06 08:42:05;;;;;;;1.50;0.50;;;19.10;66.00;;;;;;4415536;32;20059;-69
2023/01/06 08:44:31;;;;;;;6.32;0.73;;;19.20;65.70;;;;;;4429574;32;20421;-68
2023/01/06 08:46:57;;;;;;;1.52;0.60;;;19.30;65.40;;;;;;4429421;32;20412;-69
2023/01/06 08:49:23;;;;;;;1.13;0.50;;;19.30;65.50;;;;;;4429630;32;20174;-69
2023/01/06 08:51:49;;;;;;;1.45;0.70;;;19.30;65.60;;;;;;4429206;32;20071;-68
2023/01/06 08:54:15;;;;;;;1.08;0.40;;;19.30;65.70;;;;;;4429205;32;20096;-69
2023/01/06 08:56:43;;;;;;;1.92;0.70;;;19.40;65.70;;;;;;4415223;32;20106;-69
2023/01/06 08:59:13;;;;;;;3.03;0.52;;;19.40;65.70;;;;;;4429711;32;20152;-69
2023/01/06 09:01:39;;;;;;;2.28;0.60;;;19.40;65.70;;;;;;4429470;32;20089;-68
2023/01/06 09:04:06;;;;;;;5.15;0.50;;;19.40;65.70;;;;;;4429146;32;20079;-68
2023/01/06 09:06:46;;;;;;;1.95;0.70;;;19.40;65.80;;;;;;4429528;32;20089;-68
2023/01/06 09:09:12;;;;;;;2.03;0.50;;;19.40;65.80;;;;;;4429165;32;20295;-68
2023/01/06 09:11:43;;;;;;;2.65;0.50;;;19.40;65.90;;;;;;4429398;32;20090;-68
2023/01/06 09:14:12;;;;;;;3.08;0.50;;;19.40;65.90;;;;;;4429080;32;20078;-68
2023/01/06 09:16:39;;;;;;;1.67;0.52;;;19.40;66.00;;;;;;4429317;32;20067;-69
2023/01/06 09:19:05;;;;;;;1.48;0.40;;;19.40;66.00;;;;;;4429186;32;20168;-69
2023/01/06 09:21:31;;;;;;;3.60;0.50;;;19.40;66.10;;;;;;4429478;32;20148;-69
2023/01/06 09:23:57;;;;;;;5.57;0.68;;;19.40;66.10;;;;;;4440038;32;20519;-68
2023/01/06 09:26:23;;;;;;;3.75;0.80;;;19.40;66.10;;;;;;4418322;32;20066;-68
2023/01/06 09:28:49;;;;;;;5.20;0.50;;;19.40;66.20;;;;;;4429136;32;20408;-69
2023/01/06 09:31:17;;;;;;;2.40;0.50;;;19.40;66.20;;;;;;4428983;32;20078;-69
2023/01/06 09:33:43;;;;;;;4.97;0.90;;;19.40;66.30;;;;;;4429168;32;20085;-69
2023/01/06 09:36:09;;;;;;;6.10;0.63;;;19.40;66.30;;;;;;4429094;32;20078;-69
2023/01/06 09:38:35;;;;;;;3.40;0.40;;;19.40;66.30;;;;;;4428954;32;20080;-69
2023/01/06 09:41:19;;;;;;;3.05;0.60;;;19.30;66.20;;;;;;4429426;32;20113;-70
2023/01/06 09:43:57;;;;;;;1.52;0.40;;;19.30;66.30;;;;;;4428897;32;20189;-69
2023/01/06 09:46:27;;;;;;;2.38;0.90;;;19.30;66.40;;;;;;4429230;32;20083;-69
2023/01/06 09:49:21;;;;;;;2.15;0.50;;;19.20;66.50;;;;;;4428972;32;20075;-69
2023/01/06 09:51:47;;;;;;;2.20;0.50;;;19.20;66.70;;;;;;4428980;32;20078;-69
2023/01/06 09:54:39;;;;;;;2.42;0.50;;;19.20;66.90;;;;;;4429130;32;20196;-69
2023/01/06 09:57:12;;;;;;;3.08;1.02;;;19.10;67.00;;;;;;4428307;32;20108;-69
2023/01/06 09:59:53;;;;;;;5.70;0.70;;;19.10;67.30;;;;;;4429030;32;20066;-69
2023/01/06 10:02:31;;;;;;;3.22;0.70;;;19.00;67.70;;;;;;4428887;32;20093;-69
2023/01/06 10:05:16;;;;;;;5.00;0.80;;;19.00;67.90;;;;;;4429080;32;20272;-69
2023/01/06 10:08:16;;;;;;;3.60;0.70;;;19.00;68.00;;;;;;4429396;32;20622;-69
2023/01/06 10:10:41;;;;;;;5.30;0.80;;;19.00;67.90;;;;;;4425807;32;20169;-69
2023/01/06 10:13:27;;;;;;;3.45;1.08;;;19.10;67.80;;;;;;4429083;32;20184;-69
2023/01/06 10:16:29;;;;;;;8.40;1.00;;;19.10;68.00;;;;;;4428780;32;20504;-69
2023/01/06 10:19:22;;;;;;;7.80;1.10;;;19.30;67.90;;;;;;4404445;32;20074;-69
2023/01/06 10:22:11;;;;;;;5.68;0.90;;;19.40;68.00;;;;;;4428819;32;20169;-69
2023/01/06 10:24:59;;;;;;;4.28;0.90;;;19.40;67.90;;;;;;4428725;32;20404;-69
2023/01/06 10:27:30;;;;;;;5.22;1.10;;;19.40;68.00;;;;;;4414608;32;20109;-69
2023/01/06 10:29:59;;;;;;;4.68;0.90;;;19.40;67.90;;;;;;4428719;32;20094;-69
2023/01/06 10:32:30;;;;;;;2.75;0.90;;;19.50;67.80;;;;;;4428692;32;20113;-69
2023/01/06 10:34:57;;;;;;;6.60;1.23;;;19.50;67.70;;;;;;4428541;32;20164;-69
2023/01/06 10:37:31;;;;;;;9.27;0.80;;;19.50;67.70;;;;;;4423364;32;20516;-69
2023/01/06 10:40:13;;;;;;;10.00;1.75;;;19.50;67.70;;;;;;4424180;32;20183;-68
2023/01/06 10:42:55;;;;;;;4.35;1.13;;;19.50;67.60;;;;;;4431291;32;20078;-69
2023/01/06 10:45:41;;;;;;;5.82;1.20;;;19.50;67.20;;;;;;4431234;32;20670;-69
2023/01/06 10:48:11;;;;;;;6.32;1.08;;;19.50;66.50;;;;;;4414205;32;20070;-69
2023/01/06 10:50:37;;;;;;;6.20;1.25;;;19.40;66.00;;;;;;4431216;32;20412;-70
2023/01/06 10:53:04;;;;;;;7.55;1.30;;;19.40;65.60;;;;;;4431115;32;20078;-69
2023/01/06 10:55:48;;;;;;;6.60;1.35;;;19.40;65.30;;;;;;4430807;32;20062;-68
2023/01/06 10:58:45;;;;;;;4.65;1.40;;;19.30;64.90;;;;;;4425183;32;20522;-69
2023/01/06 11:01:26;;;;;;;3.70;1.13;;;19.30;64.40;;;;;;4430991;32;20097;-68
2023/01/06 11:04:14;;;;;;;6.45;1.73;;;19.20;64.10;;;;;;4430948;32;20110;-70
2023/01/06 11:06:54;;;;;;;5.13;1.20;;;19.20;63.80;;;;;;4418058;32;20587;-68
2023/01/06 11:09:37;;;;;;;4.90;1.17;;;19.10;63.60;;;;;;4429836;32;20074;-69
2023/01/06 11:12:21;;;;;;;6.07;1.53;;;19.10;63.70;;;;;;4428555;32;20187;-69
2023/01/06 11:15:01;;;;;;;5.30;1.50;;;19.00;63.80;;;;;;4429339;32;20079;-67
2023/01/06 11:17:28;;;;;;;6.57;1.48;;;19.00;64.10;;;;;;4430782;32;20078;-69
2023/01/06 11:20:12;;;;;;;9.57;1.70;;;19.00;64.50;;;;;;4430903;32;20078;-69
2023/01/06 11:22:41;;;;;;;;;;;18.90;64.60;;;;;;4429216;32;20104;-69
2023/01/06 11:25:29;;;;;;;4.38;1.38;;;18.90;64.90;;;;;;4430640;32;19989;-69
2023/01/06 11:28:18;;;;;;;7.50;1.52;;;18.90;65.20;;;;;;4430572;32;20160;-68
2023/01/06 11:30:48;;;;;;;6.35;1.50;;;18.90;65.40;;;;;;4430083;32;20102;-69
2023/01/06 11:33:21;;;;;;;8.18;1.50;;;18.90;65.40;;;;;;4430295;32;20070;-68
2023/01/06 11:35:54;;;;;;;4.75;1.40;;;18.90;65.40;;;;;;4428031;32;20232;-68
2023/01/06 11:38:21;;;;;;;6.68;1.27;;;19.00;65.30;;;;;;4417123;32;20154;-71
2023/01/06 11:40:49;;;;;;;4.38;1.10;;;19.10;65.20;;;;;;4420846;32;20289;-68
2023/01/06 11:43:24;;;;;;;8.82;1.20;;;19.20;65.10;;;;;;4421326;32;20532;-68
2023/01/06 11:45:54;;;;;;;6.13;0.90;;;19.20;64.90;;;;;;4420297;32;20121;-68
2023/01/06 11:48:41;;;;;;;3.80;0.90;;;19.30;64.70;;;;;;4416413;32;20165;-68
2023/01/06 11:51:08;;;;;;;4.82;1.02;;;19.40;64.50;;;;;;4415311;32;20071;-68
2023/01/06 11:53:37;;;;;;;5.40;1.50;;;19.50;64.40;;;;;;4427093;32;20179;-69
2023/01/06 11:56:04;;;;;;;10.50;1.40;;;19.50;64.20;;;;;;4430064;32;20416;-67
2023/01/06 11:58:37;;;;;;;11.02;1.60;;;19.50;64.20;;;;;;4429897;32;20568;-68
2023/01/06 12:01:40;;;;;;;14.32;1.40;;;19.50;64.50;;;;;;4421429;32;20168;-66
2023/01/06 12:04:35;;;;;;;7.00;1.40;;;19.50;64.50;;;;;;4431567;32;20098;-67
2023/01/06 12:07:25;;;;;;;4.47;1.10;;;19.50;64.60;;;;;;4430082;32;20423;-67
2023/01/06 12:09:53;;;;;;;8.93;1.50;;;19.50;64.60;;;;;;4422485;32;20212;-67
2023/01/06 12:12:22;;;;;;;5.88;1.42;;;19.50;64.50;;;;;;4429833;32;20220;-67
2023/01/06 12:14:48;;;;;;;7.95;1.60;;;19.50;64.50;;;;;;4417068;32;20492;-67
2023/01/06 12:17:25;;;;;;;5.55;1.30;;;19.50;64.50;;;;;;4429372;32;20074;-67
2023/01/06 12:20:18;;;;;;;5.43;1.55;;;19.50;64.50;;;;;;4428413;32;20102;-67
2023/01/06 12:22:50;;;;;;;9.57;1.50;;;19.60;64.60;;;;;;4429453;32;20491;-66
2023/01/06 12:25:47;;;;;;;4.95;1.17;;;19.60;64.50;;;;;;4424979;32;20093;-66
2023/01/06 12:28:13;;;;;;;6.78;1.35;;;19.60;64.50;;;;;;4429948;32;20563;-67
2023/01/06 12:31:04;;;;;;;5.72;1.30;;;19.60;64.50;;;;;;4429562;32;20654;-67
2023/01/06 12:33:51;;;;;;;4.10;1.52;;;19.60;64.50;;;;;;4429704;32;20070;-67
2023/01/06 12:36:50;;;;;;;4.88;1.20;;;19.60;64.60;;;;;;4429833;32;20093;-67
2023/01/06 12:39:42;;;;;;;5.72;1.42;;;19.60;64.80;;;;;;4418262;32;20516;-67
2023/01/06 12:42:53;;;;;;;5.63;0.85;;;19.60;64.70;;;;;;4429545;32;20142;-67
2023/01/06 12:45:32;;;;;;;6.25;1.33;;;19.60;64.80;;;;;;4411175;32;20133;-66
2023/01/06 12:48:06;;;;;;;5.65;1.25;;;19.60;64.80;;;;;;4429917;32;20160;-64
2023/01/06 12:50:39;;;;;;;4.57;0.85;;;19.60;64.70;;;;;;4429608;32;20070;-65
2023/01/06 12:53:08;;;;;;;5.97;1.48;;;19.60;64.80;;;;;;4429791;32;20416;-66
2023/01/06 12:55:53;;;;;;;4.68;1.30;;;19.60;64.80;;;;;;4429097;32;20078;-66
2023/01/06 12:58:25;;;;;;;7.53;1.20;;;19.60;64.80;;;;;;4428836;32;20078;-66
2023/01/06 13:01:23;;;;;;;4.25;0.95;;;19.60;64.80;;;;;;4426957;32;20192;-66
2023/01/06 13:04:07;;;;;;;3.95;1.08;;;19.60;64.80;;;;;;4428927;32;20085;-66
2023/01/06 13:07:08;;;;;;;3.15;1.00;;;19.60;64.80;;;;;;4428858;32;20161;-65
2023/01/06 13:10:00;;;;;;;7.28;1.20;;;19.60;64.80;;;;;;4380238;32;20071;-67
2023/01/06 13:12:45;;;;;;;7.30;1.60;;;19.60;65.00;;;;;;4414910;32;20501;-66
2023/01/06 13:15:23;;;;;;;5.47;1.20;;;19.60;65.00;;;;;;4428787;32;20082;-64
2023/01/06 13:18:10;;;;;;;6.28;1.33;;;19.60;65.00;;;;;;4429051;32;20066;-63